PWSweather.com
Personal Weather Stations
Station Observations
KJ4AJP
Beautiful Downtown Gardner, Martin, TN 38237

Beautiful Downtown GardnerMartin, TN 38237

Lat: 36.358, Lon: -88.8994

Elevation: 384.3

Station Type: TP1080WC

http://weather.mambm.com/

High Low Average
Temperature 88.2°F31.2°C 56.8°F13.8°C 71.3°F21.8°C
Dew Point 71.0°F21.7°C 55.3°F12.9°C 63.2°F17.3°C
Winds 5.4 mph 8.7 kmh Calm Calm 1.0 mph S1.6 kmh S
Wind Gusts 11.4 mph18.3 kmh -- 4.0 mph6.4 kmh
Humidity 99% 52% 78%
Pressure 30.10 in1019.3 mb 29.98 in1015.2 mb -
Precipitation 0.00 in0.0 mm - -
Hour Temp Dew Point Humidity Winds Wind Gusts Pressure Precip Precip Rate Daily Precip Total
12:00 AM 60.4°F15.8°C 59.6°F15.3°C 97% Calm Calm -- 30.00 in1015.9 mb 0.00 in0.0 mm 0.00 in0.0 mm 0.00 in0.0 mm
12:15 AM 60.6°F15.9°C 60.1°F15.6°C 98% Calm Calm 0.7 mph1.1 kmh 30.01 in1016.3 mb 0.00 in0.0 mm 0.00 in0.0 mm 0.00 in0.0 mm
12:30 AM 60.6°F15.9°C 60.4°F15.8°C 99% 2.2 mph E3.5 kmh E 3.1 mph5.0 kmh 30.03 in1016.9 mb 0.00 in0.0 mm 0.00 in0.0 mm 0.00 in0.0 mm
12:45 AM 61.2°F16.2°C 60.9°F16.1°C 99% Calm Calm 4.5 mph7.2 kmh 30.03 in1016.9 mb 0.00 in0.0 mm 0.00 in0.0 mm 0.00 in0.0 mm
01:00 AM 61.5°F16.4°C 61.3°F16.3°C 99% 0.7 mph SW1.1 kmh SW 1.6 mph2.6 kmh 30.03 in1016.9 mb 0.00 in0.0 mm 0.00 in0.0 mm 0.00 in0.0 mm
01:15 AM 61.9°F16.6°C 61.6°F16.4°C 99% Calm Calm 2.2 mph3.5 kmh 30.02 in1016.6 mb 0.00 in0.0 mm 0.00 in0.0 mm 0.00 in0.0 mm
01:30 AM 62.1°F16.7°C 61.8°F16.6°C 99% Calm Calm 1.6 mph2.6 kmh 30.02 in1016.6 mb 0.00 in0.0 mm 0.00 in0.0 mm 0.00 in0.0 mm
01:45 AM 62.1°F16.7°C 61.8°F16.6°C 99% Calm Calm 3.1 mph5.0 kmh 30.01 in1016.3 mb 0.00 in0.0 mm 0.00 in0.0 mm 0.00 in0.0 mm
02:00 AM 62.2°F16.8°C 62.0°F16.7°C 99% 0.7 mph NW1.1 kmh NW 9.2 mph14.8 kmh 30.00 in1015.9 mb 0.00 in0.0 mm 0.00 in0.0 mm 0.00 in0.0 mm
02:15 AM 63.0°F17.2°C 62.1°F16.7°C 97% Calm Calm 3.8 mph6.1 kmh 30.00 in1015.9 mb 0.00 in0.0 mm 0.00 in0.0 mm 0.00 in0.0 mm
02:30 AM 63.5°F17.5°C 62.1°F16.7°C 95% Calm Calm 3.1 mph5.0 kmh 30.00 in1015.9 mb 0.00 in0.0 mm 0.00 in0.0 mm 0.00 in0.0 mm
02:45 AM 63.9°F17.7°C 61.8°F16.6°C 93% 3.8 mph W6.1 kmh W 6.0 mph9.7 kmh 29.98 in1015.2 mb 0.00 in0.0 mm 0.00 in0.0 mm 0.00 in0.0 mm
03:00 AM 64.6°F18.1°C 61.9°F16.6°C 91% 2.2 mph NW3.5 kmh NW 7.6 mph12.2 kmh 29.99 in1015.6 mb 0.00 in0.0 mm 0.00 in0.0 mm 0.00 in0.0 mm
03:15 AM 64.6°F18.1°C 61.6°F16.4°C 90% Calm Calm 3.8 mph6.1 kmh 29.98 in1015.2 mb 0.00 in0.0 mm 0.00 in0.0 mm 0.00 in0.0 mm
03:30 AM 64.2°F17.9°C 61.2°F16.2°C 90% 1.6 mph SW2.6 kmh SW 2.2 mph3.5 kmh 29.99 in1015.6 mb 0.00 in0.0 mm 0.00 in0.0 mm 0.00 in0.0 mm
03:45 AM 64.0°F17.8°C 61.1°F16.2°C 90% 0.7 mph ENE1.1 kmh ENE 6.9 mph11.1 kmh 30.00 in1015.9 mb 0.00 in0.0 mm 0.00 in0.0 mm 0.00 in0.0 mm
04:00 AM 63.9°F17.7°C 60.9°F16.1°C 90% 0.7 mph E1.1 kmh E 3.1 mph5.0 kmh 30.00 in1015.9 mb 0.00 in0.0 mm 0.00 in0.0 mm 0.00 in0.0 mm
04:15 AM 63.1°F17.3°C 60.2°F15.7°C 90% Calm Calm 2.2 mph3.5 kmh 30.00 in1015.9 mb 0.00 in0.0 mm 0.00 in0.0 mm 0.00 in0.0 mm
04:30 AM 62.2°F16.8°C 59.6°F15.3°C 91% Calm Calm 1.6 mph2.6 kmh 30.00 in1015.9 mb 0.00 in0.0 mm 0.00 in0.0 mm 0.00 in0.0 mm
04:45 AM 61.3°F16.3°C 59.3°F15.2°C 93% Calm Calm 3.8 mph6.1 kmh 30.01 in1016.3 mb 0.00 in0.0 mm 0.00 in0.0 mm 0.00 in0.0 mm
05:00 AM 60.4°F15.8°C 58.7°F14.8°C 94% Calm Calm 1.6 mph2.6 kmh 30.02 in1016.6 mb 0.00 in0.0 mm 0.00 in0.0 mm 0.00 in0.0 mm
05:15 AM 59.7°F15.4°C 58.6°F14.8°C 96% Calm Calm 2.2 mph3.5 kmh 30.03 in1016.9 mb 0.00 in0.0 mm 0.00 in0.0 mm 0.00 in0.0 mm
05:30 AM 58.8°F14.9°C 58.0°F14.4°C 97% Calm Calm -- 30.04 in1017.3 mb 0.00 in0.0 mm 0.00 in0.0 mm 0.00 in0.0 mm
05:45 AM 57.9°F14.4°C 57.4°F14.1°C 98% 0.7 mph WSW1.1 kmh WSW 1.6 mph2.6 kmh 30.04 in1017.3 mb 0.00 in0.0 mm 0.00 in0.0 mm 0.00 in0.0 mm
06:00 AM 57.6°F14.2°C 57.3°F14.1°C 99% 0.7 mph SW1.1 kmh SW 1.6 mph2.6 kmh 30.05 in1017.6 mb 0.00 in0.0 mm 0.00 in0.0 mm 0.00 in0.0 mm
06:15 AM 57.2°F14.0°C 56.9°F13.8°C 99% Calm Calm 1.6 mph2.6 kmh 30.05 in1017.6 mb 0.00 in0.0 mm 0.00 in0.0 mm 0.00 in0.0 mm
06:30 AM 56.8°F13.8°C 56.6°F13.7°C 99% Calm Calm 1.6 mph2.6 kmh 30.06 in1017.9 mb 0.00 in0.0 mm 0.00 in0.0 mm 0.00 in0.0 mm
06:45 AM 56.8°F13.8°C 56.6°F13.7°C 99% Calm Calm 0.7 mph1.1 kmh 30.06 in1017.9 mb 0.00 in0.0 mm 0.00 in0.0 mm 0.00 in0.0 mm
07:00 AM 57.0°F13.9°C 56.8°F13.8°C 99% Calm Calm 1.6 mph2.6 kmh 30.07 in1018.3 mb 0.00 in0.0 mm 0.00 in0.0 mm 0.00 in0.0 mm
07:15 AM 57.7°F14.3°C 57.5°F14.2°C 99% Calm Calm -- 30.08 in1018.6 mb 0.00 in0.0 mm 0.00 in0.0 mm 0.00 in0.0 mm
07:30 AM 59.2°F15.1°C 58.9°F14.9°C 99% Calm Calm 0.7 mph1.1 kmh 30.08 in1018.6 mb 0.00 in0.0 mm 0.00 in0.0 mm 0.00 in0.0 mm
07:45 AM 60.6°F15.9°C 60.4°F15.8°C 99% 0.7 mph N1.1 kmh N 2.2 mph3.5 kmh 30.08 in1018.6 mb 0.00 in0.0 mm 0.00 in0.0 mm 0.00 in0.0 mm
08:00 AM 62.6°F17.0°C 62.3°F16.8°C 99% 0.7 mph N1.1 kmh N 2.2 mph3.5 kmh 30.09 in1019.0 mb 0.00 in0.0 mm 0.00 in0.0 mm 0.00 in0.0 mm
08:15 AM 64.8°F18.2°C 64.5°F18.1°C 99% 1.6 mph N2.6 kmh N 4.5 mph7.2 kmh 30.09 in1019.0 mb 0.00 in0.0 mm 0.00 in0.0 mm 0.00 in0.0 mm
08:30 AM 66.7°F19.3°C 64.7°F18.2°C 93% 0.7 mph N1.1 kmh N 3.8 mph6.1 kmh 30.09 in1019.0 mb 0.00 in0.0 mm 0.00 in0.0 mm 0.00 in0.0 mm
08:45 AM 68.5°F20.3°C 64.9°F18.3°C 88% 0.7 mph NNE1.1 kmh NNE 4.5 mph7.2 kmh 30.09 in1019.0 mb 0.00 in0.0 mm 0.00 in0.0 mm 0.00 in0.0 mm
09:00 AM 70.3°F21.3°C 65.3°F18.5°C 84% 1.6 mph NE2.6 kmh NE 3.1 mph5.0 kmh 30.09 in1019.0 mb 0.00 in0.0 mm 0.00 in0.0 mm 0.00 in0.0 mm
09:15 AM 72.1°F22.3°C 66.0°F18.9°C 81% 1.6 mph ENE2.6 kmh ENE 3.1 mph5.0 kmh 30.09 in1019.0 mb 0.00 in0.0 mm 0.00 in0.0 mm 0.00 in0.0 mm
09:30 AM 74.7°F23.7°C 67.8°F19.9°C 79% 1.6 mph N2.6 kmh N 3.1 mph5.0 kmh 30.09 in1019.0 mb 0.00 in0.0 mm 0.00 in0.0 mm 0.00 in0.0 mm
09:45 AM 76.1°F24.5°C 68.0°F20.0°C 76% 0.7 mph NW1.1 kmh NW 4.5 mph7.2 kmh 30.10 in1019.3 mb 0.00 in0.0 mm 0.00 in0.0 mm 0.00 in0.0 mm
10:00 AM 77.5°F25.3°C 68.6°F20.3°C 74% 0.7 mph N1.1 kmh N 5.4 mph8.7 kmh 30.09 in1019.0 mb 0.00 in0.0 mm 0.00 in0.0 mm 0.00 in0.0 mm
10:15 AM 79.0°F26.1°C 68.8°F20.4°C 71% 2.2 mph WNW3.5 kmh WNW 3.8 mph6.1 kmh 30.10 in1019.3 mb 0.00 in0.0 mm 0.00 in0.0 mm 0.00 in0.0 mm
10:30 AM 79.7°F26.5°C 69.5°F20.8°C 71% 0.7 mph NW1.1 kmh NW 4.5 mph7.2 kmh 30.10 in1019.3 mb 0.00 in0.0 mm 0.00 in0.0 mm 0.00 in0.0 mm
10:45 AM 79.9°F26.6°C 69.7°F20.9°C 71% 2.2 mph N3.5 kmh N 8.3 mph13.4 kmh 30.09 in1019.0 mb 0.00 in0.0 mm 0.00 in0.0 mm 0.00 in0.0 mm
11:00 AM 81.0°F27.2°C 69.9°F21.1°C 69% 0.7 mph NW1.1 kmh NW 3.8 mph6.1 kmh 30.10 in1019.3 mb 0.00 in0.0 mm 0.00 in0.0 mm 0.00 in0.0 mm
11:15 AM 81.9°F27.7°C 70.7°F21.5°C 69% 2.2 mph NNW3.5 kmh NNW 5.4 mph8.7 kmh 30.10 in1019.3 mb 0.00 in0.0 mm 0.00 in0.0 mm 0.00 in0.0 mm
11:30 AM 82.4°F28.0°C 70.4°F21.3°C 67% 0.7 mph NNW1.1 kmh NNW 6.9 mph11.1 kmh 30.10 in1019.3 mb 0.00 in0.0 mm 0.00 in0.0 mm 0.00 in0.0 mm
11:45 AM 82.9°F28.3°C 70.5°F21.4°C 66% 3.8 mph N6.1 kmh N 7.6 mph12.2 kmh 30.10 in1019.3 mb 0.00 in0.0 mm 0.00 in0.0 mm 0.00 in0.0 mm
12:00 PM 83.5°F28.6°C 70.1°F21.2°C 64% 2.2 mph N3.5 kmh N 7.6 mph12.2 kmh 30.09 in1019.0 mb 0.00 in0.0 mm 0.00 in0.0 mm 0.00 in0.0 mm
12:15 PM 83.5°F28.6°C 71.0°F21.7°C 66% 1.6 mph ENE2.6 kmh ENE 6.9 mph11.1 kmh 30.09 in1019.0 mb 0.00 in0.0 mm 0.00 in0.0 mm 0.00 in0.0 mm
12:30 PM 84.7°F29.3°C 70.8°F21.6°C 63% 3.1 mph NNE5.0 kmh NNE 8.3 mph13.4 kmh 30.09 in1019.0 mb 0.00 in0.0 mm 0.00 in0.0 mm 0.00 in0.0 mm
12:45 PM 84.7°F29.3°C 70.3°F21.3°C 62% 3.8 mph WNW6.1 kmh WNW 8.3 mph13.4 kmh 30.08 in1018.6 mb 0.00 in0.0 mm 0.00 in0.0 mm 0.00 in0.0 mm
01:00 PM 84.9°F29.4°C 69.5°F20.8°C 60% 0.7 mph N1.1 kmh N 7.6 mph12.2 kmh 30.08 in1018.6 mb 0.00 in0.0 mm 0.00 in0.0 mm 0.00 in0.0 mm
01:15 PM 85.3°F29.6°C 70.4°F21.3°C 61% 0.7 mph NNE1.1 kmh NNE 9.2 mph14.8 kmh 30.07 in1018.3 mb 0.00 in0.0 mm 0.00 in0.0 mm 0.00 in0.0 mm
01:30 PM 85.8°F29.9°C 69.9°F21.1°C 59% 2.2 mph N3.5 kmh N 8.3 mph13.4 kmh 30.07 in1018.3 mb 0.00 in0.0 mm 0.00 in0.0 mm 0.00 in0.0 mm
01:45 PM 85.8°F29.9°C 67.8°F19.9°C 55% 3.1 mph NE5.0 kmh NE 6.0 mph9.7 kmh 30.06 in1017.9 mb 0.00 in0.0 mm 0.00 in0.0 mm 0.00 in0.0 mm
02:00 PM 86.9°F30.5°C 69.9°F21.1°C 57% 1.6 mph N2.6 kmh N 8.3 mph13.4 kmh 30.06 in1017.9 mb 0.00 in0.0 mm 0.00 in0.0 mm 0.00 in0.0 mm
02:15 PM 86.4°F30.2°C 67.8°F19.9°C 54% 2.2 mph NW3.5 kmh NW 5.4 mph8.7 kmh 30.06 in1017.9 mb 0.00 in0.0 mm 0.00 in0.0 mm 0.00 in0.0 mm
02:30 PM 87.3°F30.7°C 69.2°F20.7°C 55% 3.8 mph NE6.1 kmh NE 8.3 mph13.4 kmh 30.06 in1017.9 mb 0.00 in0.0 mm 0.00 in0.0 mm 0.00 in0.0 mm
02:45 PM 88.2°F31.2°C 68.9°F20.5°C 53% 5.4 mph NNW8.7 kmh NNW 10.7 mph17.2 kmh 30.06 in1017.9 mb 0.00 in0.0 mm 0.00 in0.0 mm 0.00 in0.0 mm
03:00 PM 87.4°F30.8°C 69.4°F20.8°C 55% 1.6 mph N2.6 kmh N 10.7 mph17.2 kmh 30.05 in1017.6 mb 0.00 in0.0 mm 0.00 in0.0 mm 0.00 in0.0 mm
03:15 PM 87.1°F30.6°C 68.5°F20.3°C 54% 2.2 mph NNW3.5 kmh NNW 11.4 mph18.3 kmh 30.05 in1017.6 mb 0.00 in0.0 mm 0.00 in0.0 mm 0.00 in0.0 mm
03:30 PM 87.3°F30.7°C 68.6°F20.3°C 54% 3.8 mph N6.1 kmh N 8.3 mph13.4 kmh 30.04 in1017.3 mb 0.00 in0.0 mm 0.00 in0.0 mm 0.00 in0.0 mm
03:45 PM 87.3°F30.7°C 68.1°F20.1°C 53% 3.1 mph N5.0 kmh N 7.6 mph12.2 kmh 30.04 in1017.3 mb 0.00 in0.0 mm 0.00 in0.0 mm 0.00 in0.0 mm
04:00 PM 87.1°F30.6°C 67.9°F19.9°C 53% 0.7 mph NNE1.1 kmh NNE 8.3 mph13.4 kmh 30.04 in1017.3 mb 0.00 in0.0 mm 0.00 in0.0 mm 0.00 in0.0 mm
04:15 PM 86.5°F30.3°C 67.4°F19.7°C 53% 3.8 mph N6.1 kmh N 9.2 mph14.8 kmh 30.04 in1017.3 mb 0.00 in0.0 mm 0.00 in0.0 mm 0.00 in0.0 mm
04:30 PM 85.6°F29.8°C 66.1°F18.9°C 52% 1.6 mph N2.6 kmh N 8.3 mph13.4 kmh 30.03 in1016.9 mb 0.00 in0.0 mm 0.00 in0.0 mm 0.00 in0.0 mm
04:45 PM 84.6°F29.2°C 66.1°F18.9°C 54% 3.8 mph N6.1 kmh N 9.2 mph14.8 kmh 30.03 in1016.9 mb 0.00 in0.0 mm 0.00 in0.0 mm 0.00 in0.0 mm
05:00 PM 84.2°F29.0°C 65.8°F18.8°C 54% 0.7 mph N1.1 kmh N 8.3 mph13.4 kmh 30.04 in1017.3 mb 0.00 in0.0 mm 0.00 in0.0 mm 0.00 in0.0 mm
05:15 PM 84.2°F29.0°C 65.8°F18.8°C 54% 3.1 mph N5.0 kmh N 9.2 mph14.8 kmh 30.03 in1016.9 mb 0.00 in0.0 mm 0.00 in0.0 mm 0.00 in0.0 mm
05:30 PM 83.3°F28.5°C 65.5°F18.6°C 55% 2.2 mph NE3.5 kmh NE 5.4 mph8.7 kmh 30.03 in1016.9 mb 0.00 in0.0 mm 0.00 in0.0 mm 0.00 in0.0 mm
05:45 PM 82.4°F28.0°C 64.7°F18.2°C 55% 2.2 mph ENE3.5 kmh ENE 6.9 mph11.1 kmh 30.04 in1017.3 mb 0.00 in0.0 mm 0.00 in0.0 mm 0.00 in0.0 mm
06:00 PM 81.3°F27.4°C 64.7°F18.2°C 57% 2.2 mph N3.5 kmh N 6.9 mph11.1 kmh 30.03 in1016.9 mb 0.00 in0.0 mm 0.00 in0.0 mm 0.00 in0.0 mm
06:15 PM 80.1°F26.7°C 64.0°F17.8°C 58% 1.6 mph NNE2.6 kmh NNE 6.9 mph11.1 kmh 30.04 in1017.3 mb 0.00 in0.0 mm 0.00 in0.0 mm 0.00 in0.0 mm
06:30 PM 79.2°F26.2°C 64.1°F17.8°C 60% 1.6 mph N2.6 kmh N 6.0 mph9.7 kmh 30.03 in1016.9 mb 0.00 in0.0 mm 0.00 in0.0 mm 0.00 in0.0 mm
06:45 PM 78.3°F25.7°C 63.7°F17.6°C 61% 0.7 mph NE1.1 kmh NE 6.9 mph11.1 kmh 30.03 in1016.9 mb 0.00 in0.0 mm 0.00 in0.0 mm 0.00 in0.0 mm
07:00 PM 77.4°F25.2°C 63.4°F17.4°C 62% 0.7 mph NNE1.1 kmh NNE 4.5 mph7.2 kmh 30.02 in1016.6 mb 0.00 in0.0 mm 0.00 in0.0 mm 0.00 in0.0 mm
07:15 PM 76.5°F24.7°C 63.0°F17.2°C 63% 2.2 mph N3.5 kmh N 5.4 mph8.7 kmh 30.03 in1016.9 mb 0.00 in0.0 mm 0.00 in0.0 mm 0.00 in0.0 mm
07:30 PM 75.4°F24.1°C 62.4°F16.9°C 64% 0.7 mph N1.1 kmh N 3.1 mph5.0 kmh 30.03 in1016.9 mb 0.00 in0.0 mm 0.00 in0.0 mm 0.00 in0.0 mm
07:45 PM 74.1°F23.4°C 62.5°F16.9°C 67% Calm Calm 4.5 mph7.2 kmh 30.04 in1017.3 mb 0.00 in0.0 mm 0.00 in0.0 mm 0.00 in0.0 mm
08:00 PM 72.7°F22.6°C 62.0°F16.7°C 69% Calm Calm 2.2 mph3.5 kmh 30.04 in1017.3 mb 0.00 in0.0 mm 0.00 in0.0 mm 0.00 in0.0 mm
08:15 PM 71.1°F21.7°C 61.6°F16.4°C 72% Calm Calm 0.7 mph1.1 kmh 30.04 in1017.3 mb 0.00 in0.0 mm 0.00 in0.0 mm 0.00 in0.0 mm
08:30 PM 69.6°F20.9°C 61.4°F16.3°C 75% 0.7 mph N1.1 kmh N 2.2 mph3.5 kmh 30.04 in1017.3 mb 0.00 in0.0 mm 0.00 in0.0 mm 0.00 in0.0 mm
08:45 PM 68.4°F20.2°C 60.5°F15.8°C 76% 0.7 mph N1.1 kmh N 3.1 mph5.0 kmh 30.05 in1017.6 mb 0.00 in0.0 mm 0.00 in0.0 mm 0.00 in0.0 mm
09:00 PM 67.1°F19.5°C 60.4°F15.8°C 79% Calm Calm 2.2 mph3.5 kmh 30.06 in1017.9 mb 0.00 in0.0 mm 0.00 in0.0 mm 0.00 in0.0 mm
09:15 PM 66.0°F18.9°C 59.7°F15.4°C 80% 0.7 mph N1.1 kmh N 2.2 mph3.5 kmh 30.06 in1017.9 mb 0.00 in0.0 mm 0.00 in0.0 mm 0.00 in0.0 mm
09:30 PM 64.9°F18.3°C 59.3°F15.2°C 82% 0.7 mph N1.1 kmh N 2.2 mph3.5 kmh 30.06 in1017.9 mb 0.00 in0.0 mm 0.00 in0.0 mm 0.00 in0.0 mm
09:45 PM 64.2°F17.9°C 59.3°F15.2°C 84% Calm Calm 1.6 mph2.6 kmh 30.07 in1018.3 mb 0.00 in0.0 mm 0.00 in0.0 mm 0.00 in0.0 mm
10:00 PM 63.5°F17.5°C 58.6°F14.8°C 84% Calm Calm 0.7 mph1.1 kmh 30.07 in1018.3 mb 0.00 in0.0 mm 0.00 in0.0 mm 0.00 in0.0 mm
10:15 PM 62.6°F17.0°C 58.4°F14.7°C 86% 0.7 mph N1.1 kmh N 2.2 mph3.5 kmh 30.08 in1018.6 mb 0.00 in0.0 mm 0.00 in0.0 mm 0.00 in0.0 mm
10:30 PM 62.1°F16.7°C 58.5°F14.7°C 88% 0.7 mph N1.1 kmh N 2.2 mph3.5 kmh 30.08 in1018.6 mb 0.00 in0.0 mm 0.00 in0.0 mm 0.00 in0.0 mm
10:45 PM 61.5°F16.4°C 57.9°F14.4°C 88% Calm Calm 2.2 mph3.5 kmh 30.09 in1019.0 mb 0.00 in0.0 mm 0.00 in0.0 mm 0.00 in0.0 mm
11:00 PM 61.0°F16.1°C 57.4°F14.1°C 88% Calm Calm 1.6 mph2.6 kmh 30.09 in1019.0 mb 0.00 in0.0 mm 0.00 in0.0 mm 0.00 in0.0 mm
11:15 PM 60.4°F15.8°C 57.2°F14.0°C 89% Calm Calm 0.7 mph1.1 kmh 30.08 in1018.6 mb 0.00 in0.0 mm 0.00 in0.0 mm 0.00 in0.0 mm
11:30 PM 59.7°F15.4°C 56.8°F13.8°C 90% Calm Calm -- 30.08 in1018.6 mb 0.00 in0.0 mm 0.00 in0.0 mm 0.00 in0.0 mm
11:45 PM 59.2°F15.1°C 56.6°F13.7°C 91% Calm Calm 0.7 mph1.1 kmh 30.09 in1019.0 mb 0.00 in0.0 mm 0.00 in0.0 mm 0.00 in0.0 mm